sensor_id;sensor_type;location;lat;lon;timestamp;pressure;altitude;pressure_sealevel;temperature;humidity
85055;BME280;75391;48.300;16.352;2024-02-16T00:02:22;100250.06;;;9.14;100.00
85055;BME280;75391;48.300;16.352;2024-02-16T00:04:48;100256.00;;;9.20;100.00
85055;BME280;75391;48.300;16.352;2024-02-16T00:07:13;100258.91;;;9.11;100.00
85055;BME280;75391;48.300;16.352;2024-02-16T00:09:39;100249.09;;;9.16;100.00
85055;BME280;75391;48.300;16.352;2024-02-16T00:12:04;100251.72;;;9.16;100.00
85055;BME280;75391;48.300;16.352;2024-02-16T00:14:30;100249.78;;;9.21;100.00
85055;BME280;75391;48.300;16.352;2024-02-16T00:16:56;100252.63;;;9.15;100.00
85055;BME280;75391;48.300;16.352;2024-02-16T00:19:22;100256.00;;;9.20;100.00
85055;BME280;75391;48.300;16.352;2024-02-16T00:21:47;100246.44;;;9.16;100.00
85055;BME280;75391;48.300;16.352;2024-02-16T00:24:13;100240.72;;;9.03;100.00
85055;BME280;75391;48.300;16.352;2024-02-16T00:26:39;100236.00;;;10.61;100.00
85055;BME280;75391;48.300;16.352;2024-02-16T00:29:05;100248.69;;;9.28;100.00
85055;BME280;75391;48.300;16.352;2024-02-16T00:31:30;100250.84;;;9.16;100.00
85055;BME280;75391;48.300;16.352;2024-02-16T00:33:56;100246.66;;;8.82;100.00
85055;BME280;75391;48.300;16.352;2024-02-16T00:36:21;100243.34;;;9.03;100.00
85055;BME280;75391;48.300;16.352;2024-02-16T00:38:47;100237.28;;;9.01;100.00
85055;BME280;75391;48.300;16.352;2024-02-16T00:41:20;100232.22;;;8.94;100.00
85055;BME280;75391;48.300;16.352;2024-02-16T00:43:45;100239.28;;;8.93;100.00
85055;BME280;75391;48.300;16.352;2024-02-16T00:46:11;100224.03;;;9.03;100.00
85055;BME280;75391;48.300;16.352;2024-02-16T00:48:37;100230.31;;;8.99;100.00
85055;BME280;75391;48.300;16.352;2024-02-16T00:51:02;100225.22;;;8.93;100.00
85055;BME280;75391;48.300;16.352;2024-02-16T00:53:28;100220.72;;;8.96;100.00
85055;BME280;75391;48.300;16.352;2024-02-16T00:55:54;100218.50;;;8.82;100.00
85055;BME280;75391;48.300;16.352;2024-02-16T00:58:19;100219.88;;;8.94;100.00
85055;BME280;75391;48.300;16.352;2024-02-16T01:00:45;100221.06;;;8.86;100.00
85055;BME280;75391;48.300;16.352;2024-02-16T01:03:11;100205.53;;;10.04;100.00
85055;BME280;75391;48.300;16.352;2024-02-16T01:05:36;100199.47;;;10.26;100.00
85055;BME280;75391;48.300;16.352;2024-02-16T01:08:02;100196.00;;;10.47;100.00
85055;BME280;75391;48.300;16.352;2024-02-16T01:10:28;100189.56;;;10.98;100.00
85055;BME280;75391;48.300;16.352;2024-02-16T01:12:53;100194.88;;;10.98;100.00
85055;BME280;75391;48.300;16.352;2024-02-16T01:15:19;100205.66;;;9.00;100.00
85055;BME280;75391;48.300;16.352;2024-02-16T01:17:45;100206.00;;;8.89;100.00
85055;BME280;75391;48.300;16.352;2024-02-16T01:20:11;100201.16;;;8.75;100.00
85055;BME280;75391;48.300;16.352;2024-02-16T01:22:36;100202.75;;;8.81;100.00
85055;BME280;75391;48.300;16.352;2024-02-16T01:25:02;100205.91;;;8.92;100.00
85055;BME280;75391;48.300;16.352;2024-02-16T01:27:28;100203.91;;;8.72;100.00
85055;BME280;75391;48.300;16.352;2024-02-16T01:29:54;100202.38;;;8.65;100.00
85055;BME280;75391;48.300;16.352;2024-02-16T01:32:19;100195.22;;;8.69;100.00
85055;BME280;75391;48.300;16.352;2024-02-16T01:34:45;100198.78;;;8.68;100.00
85055;BME280;75391;48.300;16.352;2024-02-16T01:37:11;100195.47;;;8.61;100.00
85055;BME280;75391;48.300;16.352;2024-02-16T01:39:36;100197.88;;;8.69;100.00
85055;BME280;75391;48.300;16.352;2024-02-16T01:42:02;100197.53;;;8.51;100.00
85055;BME280;75391;48.300;16.352;2024-02-16T01:44:28;100206.09;;;8.58;100.00
85055;BME280;75391;48.300;16.352;2024-02-16T01:46:53;100195.56;;;8.58;100.00
85055;BME280;75391;48.300;16.352;2024-02-16T01:49:19;100192.88;;;8.60;100.00
85055;BME280;75391;48.300;16.352;2024-02-16T01:51:46;100191.41;;;8.51;100.00
85055;BME280;75391;48.300;16.352;2024-02-16T01:54:12;100197.59;;;8.50;100.00
85055;BME280;75391;48.300;16.352;2024-02-16T01:56:37;100188.81;;;8.49;100.00
85055;BME280;75391;48.300;16.352;2024-02-16T01:59:03;100189.72;;;8.48;100.00
85055;BME280;75391;48.300;16.352;2024-02-16T02:01:29;100189.88;;;8.44;100.00
85055;BME280;75391;48.300;16.352;2024-02-16T02:03:55;100192.44;;;8.45;100.00
85055;BME280;75391;48.300;16.352;2024-02-16T02:06:21;100184.41;;;8.50;100.00
85055;BME280;75391;48.300;16.352;2024-02-16T02:08:47;100173.63;;;8.57;100.00
85055;BME280;75391;48.300;16.352;2024-02-16T02:11:12;100174.28;;;8.64;100.00
85055;BME280;75391;48.300;16.352;2024-02-16T02:13:38;100166.03;;;8.48;100.00
85055;BME280;75391;48.300;16.352;2024-02-16T02:16:04;100171.13;;;8.53;100.00
85055;BME280;75391;48.300;16.352;2024-02-16T02:18:31;100164.84;;;8.57;100.00
85055;BME280;75391;48.300;16.352;2024-02-16T02:20:57;100159.38;;;8.63;100.00
85055;BME280;75391;48.300;16.352;2024-02-16T02:23:22;100154.91;;;8.39;100.00
85055;BME280;75391;48.300;16.352;2024-02-16T02:25:48;100159.38;;;8.63;100.00
85055;BME280;75391;48.300;16.352;2024-02-16T02:28:14;100149.09;;;8.55;100.00
85055;BME280;75391;48.300;16.352;2024-02-16T02:30:40;100142.13;;;8.53;100.00
85055;BME280;75391;48.300;16.352;2024-02-16T02:33:06;100144.88;;;8.50;100.00
85055;BME280;75391;48.300;16.352;2024-02-16T02:35:31;100147.38;;;8.54;100.00
85055;BME280;75391;48.300;16.352;2024-02-16T02:37:57;100140.03;;;8.64;100.00
85055;BME280;75391;48.300;16.352;2024-02-16T02:40:23;100140.13;;;8.61;100.00
85055;BME280;75391;48.300;16.352;2024-02-16T02:42:48;100134.94;;;8.58;100.00
85055;BME280;75391;48.300;16.352;2024-02-16T02:45:14;100136.00;;;8.52;100.00
85055;BME280;75391;48.300;16.352;2024-02-16T02:47:40;100131.50;;;8.56;100.00
85055;BME280;75391;48.300;16.352;2024-02-16T02:50:06;100137.78;;;8.52;100.00
85055;BME280;75391;48.300;16.352;2024-02-16T02:52:31;100138.56;;;8.26;100.00
85055;BME280;75391;48.300;16.352;2024-02-16T02:54:57;100134.44;;;8.47;100.00
85055;BME280;75391;48.300;16.352;2024-02-16T02:57:23;100140.34;;;8.55;100.00
85055;BME280;75391;48.300;16.352;2024-02-16T02:59:48;100128.31;;;8.46;100.00
85055;BME280;75391;48.300;16.352;2024-02-16T03:02:14;100127.63;;;8.40;100.00
85055;BME280;75391;48.300;16.352;2024-02-16T03:04:40;100133.63;;;8.45;100.00
85055;BME280;75391;48.300;16.352;2024-02-16T03:07:05;100131.00;;;8.45;100.00
85055;BME280;75391;48.300;16.352;2024-02-16T03:09:31;100128.16;;;8.51;100.00
85055;BME280;75391;48.300;16.352;2024-02-16T03:11:57;100130.72;;;8.54;100.00
85055;BME280;75391;48.300;16.352;2024-02-16T03:14:23;100132.31;;;8.58;100.00
85055;BME280;75391;48.300;16.352;2024-02-16T03:16:48;100134.44;;;8.47;100.00
85055;BME280;75391;48.300;16.352;2024-02-16T03:19:14;100128.75;;;8.59;100.00
85055;BME280;75391;48.300;16.352;2024-02-16T03:21:40;100130.66;;;8.55;100.00
85055;BME280;75391;48.300;16.352;2024-02-16T03:24:05;100130.81;;;8.21;100.00
85055;BME280;75391;48.300;16.352;2024-02-16T03:26:31;100134.53;;;8.44;100.00
85055;BME280;75391;48.300;16.352;2024-02-16T03:28:57;100135.84;;;8.29;100.00
85055;BME280;75391;48.300;16.352;2024-02-16T03:31:23;100137.97;;;8.46;100.00
85055;BME280;75391;48.300;16.352;2024-02-16T03:33:50;100140.00;;;8.38;100.00
85055;BME280;75391;48.300;16.352;2024-02-16T03:36:17;100141.88;;;8.33;100.00
85055;BME280;75391;48.300;16.352;2024-02-16T03:38:48;100140.56;;;8.47;100.00
85055;BME280;75391;48.300;16.352;2024-02-16T03:41:14;100139.75;;;8.45;100.00
85055;BME280;75391;48.300;16.352;2024-02-16T03:43:41;100138.13;;;8.41;100.00
85055;BME280;75391;48.300;16.352;2024-02-16T03:46:06;100140.53;;;8.19;100.00
85055;BME280;75391;48.300;16.352;2024-02-16T03:48:32;100138.38;;;8.32;100.00
85055;BME280;75391;48.300;16.352;2024-02-16T03:50:58;100137.94;;;8.18;100.00
85055;BME280;75391;48.300;16.352;2024-02-16T03:53:23;100141.72;;;8.09;100.00
85055;BME280;75391;48.300;16.352;2024-02-16T03:55:49;100145.03;;;8.16;100.00
85055;BME280;75391;48.300;16.352;2024-02-16T03:58:15;100142.78;;;8.32;100.00
85055;BME280;75391;48.300;16.352;2024-02-16T04:00:41;100141.97;;;8.29;100.00
85055;BME280;75391;48.300;16.352;2024-02-16T04:03:06;100139.88;;;8.11;100.00
85055;BME280;75391;48.300;16.352;2024-02-16T04:05:32;100143.53;;;7.78;100.00
85055;BME280;75391;48.300;16.352;2024-02-16T04:07:57;100145.16;;;8.11;100.00
85055;BME280;75391;48.300;16.352;2024-02-16T04:10:23;100142.13;;;8.25;100.00
85055;BME280;75391;48.300;16.352;2024-02-16T04:12:49;100148.81;;;8.07;100.00
85055;BME280;75391;48.300;16.352;2024-02-16T04:15:14;100155.66;;;8.13;100.00
85055;BME280;75391;48.300;16.352;2024-02-16T04:17:40;100162.34;;;8.23;100.00
85055;BME280;75391;48.300;16.352;2024-02-16T04:20:06;100166.78;;;8.22;100.00
85055;BME280;75391;48.300;16.352;2024-02-16T04:22:32;100170.31;;;8.21;100.00
85055;BME280;75391;48.300;16.352;2024-02-16T04:24:57;100176.13;;;8.03;100.00
85055;BME280;75391;48.300;16.352;2024-02-16T04:27:23;100170.25;;;8.23;100.00
85055;BME280;75391;48.300;16.352;2024-02-16T04:29:49;100173.31;;;8.09;100.00
85055;BME280;75391;48.300;16.352;2024-02-16T04:32:14;100167.63;;;8.23;100.00
85055;BME280;75391;48.300;16.352;2024-02-16T04:34:40;100170.25;;;8.24;100.00
85055;BME280;75391;48.300;16.352;2024-02-16T04:37:06;100178.28;;;8.20;100.00
85055;BME280;75391;48.300;16.352;2024-02-16T04:39:31;100176.25;;;8.28;100.00
85055;BME280;75391;48.300;16.352;2024-02-16T04:41:57;100179.66;;;8.32;100.00
85055;BME280;75391;48.300;16.352;2024-02-16T04:44:23;100178.31;;;7.89;100.00
85055;BME280;75391;48.300;16.352;2024-02-16T04:46:50;100168.66;;;8.19;100.00
85055;BME280;75391;48.300;16.352;2024-02-16T04:49:16;100175.41;;;8.27;100.00
85055;BME280;75391;48.300;16.352;2024-02-16T04:51:41;100171.03;;;8.26;100.00
85055;BME280;75391;48.300;16.352;2024-02-16T04:54:07;100169.09;;;8.33;100.00
85055;BME280;75391;48.300;16.352;2024-02-16T04:56:33;100166.03;;;8.19;100.00
85055;BME280;75391;48.300;16.352;2024-02-16T04:58:58;100165.31;;;8.12;100.00
85055;BME280;75391;48.300;16.352;2024-02-16T05:01:24;100159.84;;;8.20;100.00
85055;BME280;75391;48.300;16.352;2024-02-16T05:03:49;100162.34;;;8.24;100.00
85055;BME280;75391;48.300;16.352;2024-02-16T05:06:15;100158.25;;;8.14;100.00
85055;BME280;75391;48.300;16.352;2024-02-16T05:08:41;100161.50;;;8.22;100.00
85055;BME280;75391;48.300;16.352;2024-02-16T05:11:06;100153.91;;;8.12;100.00
85055;BME280;75391;48.300;16.352;2024-02-16T05:13:32;100151.16;;;8.16;100.00
85055;BME280;75391;48.300;16.352;2024-02-16T05:15:58;100149.69;;;8.06;100.00
85055;BME280;75391;48.300;16.352;2024-02-16T05:18:23;100158.06;;;7.91;100.00
85055;BME280;75391;48.300;16.352;2024-02-16T05:20:49;100150.22;;;7.88;100.00
85055;BME280;75391;48.300;16.352;2024-02-16T05:23:14;100150.03;;;7.95;100.00
85055;BME280;75391;48.300;16.352;2024-02-16T05:25:40;100152.50;;;8.00;100.00
85055;BME280;75391;48.300;16.352;2024-02-16T05:28:06;100152.66;;;7.95;100.00
85055;BME280;75391;48.300;16.352;2024-02-16T05:30:32;100153.03;;;7.83;100.00
85055;BME280;75391;48.300;16.352;2024-02-16T05:32:57;100149.53;;;7.83;100.00
85055;BME280;75391;48.300;16.352;2024-02-16T05:35:23;100152.41;;;7.73;100.00
85055;BME280;75391;48.300;16.352;2024-02-16T05:37:48;100154.63;;;7.89;100.00
85055;BME280;75391;48.300;16.352;2024-02-16T05:40:14;100152.31;;;7.76;100.00
85055;BME280;75391;48.300;16.352;2024-02-16T05:42:40;100161.81;;;7.82;100.00
85055;BME280;75391;48.300;16.352;2024-02-16T05:45:06;100158.59;;;7.72;100.00
85055;BME280;75391;48.300;16.352;2024-02-16T05:47:31;100164.03;;;7.66;100.00
85055;BME280;75391;48.300;16.352;2024-02-16T05:49:57;100159.66;;;7.65;100.00
85055;BME280;75391;48.300;16.352;2024-02-16T05:52:23;100160.53;;;7.66;100.00
85055;BME280;75391;48.300;16.352;2024-02-16T05:54:48;100158.72;;;7.68;100.00
85055;BME280;75391;48.300;16.352;2024-02-16T05:57:14;100162.31;;;7.33;100.00
85055;BME280;75391;48.300;16.352;2024-02-16T05:59:41;100156.53;;;7.51;100.00
85055;BME280;75391;48.300;16.352;2024-02-16T06:02:07;100167.22;;;7.45;100.00
85055;BME280;75391;48.300;16.352;2024-02-16T06:04:33;100159.09;;;7.54;100.00
85055;BME280;75391;48.300;16.352;2024-02-16T06:06:58;100162.38;;;7.62;100.00
85055;BME280;75391;48.300;16.352;2024-02-16T06:09:25;100164.78;;;7.70;100.00
85055;BME280;75391;48.300;16.352;2024-02-16T06:11:51;100161.41;;;7.66;100.00
85055;BME280;75391;48.300;16.352;2024-02-16T06:14:16;100167.25;;;7.76;100.00
85055;BME280;75391;48.300;16.352;2024-02-16T06:16:43;100174.38;;;7.72;100.00
85055;BME280;75391;48.300;16.352;2024-02-16T06:19:08;100177.56;;;7.84;100.00
85055;BME280;75391;48.300;16.352;2024-02-16T06:21:35;100173.53;;;7.70;100.00
85055;BME280;75391;48.300;16.352;2024-02-16T06:24:01;100167.84;;;7.86;100.00
85055;BME280;75391;48.300;16.352;2024-02-16T06:26:27;100169.94;;;7.74;100.00
85055;BME280;75391;48.300;16.352;2024-02-16T06:28:52;100174.75;;;7.90;100.00
85055;BME280;75391;48.300;16.352;2024-02-16T06:31:18;100173.03;;;7.89;100.00
85055;BME280;75391;48.300;16.352;2024-02-16T06:33:44;100176.72;;;7.82;100.00
85055;BME280;75391;48.300;16.352;2024-02-16T06:36:09;100177.53;;;7.85;100.00
85055;BME280;75391;48.300;16.352;2024-02-16T06:38:36;100178.56;;;8.95;100.00
85055;BME280;75391;48.300;16.352;2024-02-16T06:41:02;100176.66;;;9.26;100.00
85055;BME280;75391;48.300;16.352;2024-02-16T06:43:28;100183.00;;;9.21;100.00
85055;BME280;75391;48.300;16.352;2024-02-16T06:45:53;100190.88;;;8.68;100.00
85055;BME280;75391;48.300;16.352;2024-02-16T06:48:19;100186.47;;;8.95;100.00
85055;BME280;75391;48.300;16.352;2024-02-16T06:50:45;100197.63;;;9.29;100.00
85055;BME280;75391;48.300;16.352;2024-02-16T06:53:10;100192.09;;;10.10;100.00
85055;BME280;75391;48.300;16.352;2024-02-16T06:55:36;100184.69;;;9.72;100.00
85055;BME280;75391;48.300;16.352;2024-02-16T06:58:02;100193.19;;;10.05;100.00
85055;BME280;75391;48.300;16.352;2024-02-16T07:00:27;100190.69;;;10.25;100.00
85055;BME280;75391;48.300;16.352;2024-02-16T07:02:53;100192.03;;;10.59;100.00
85055;BME280;75391;48.300;16.352;2024-02-16T07:05:18;100194.84;;;10.07;100.00
85055;BME280;75391;48.300;16.352;2024-02-16T07:07:44;100199.16;;;10.57;100.00
85055;BME280;75391;48.300;16.352;2024-02-16T07:10:10;100193.00;;;10.78;100.00
85055;BME280;75391;48.300;16.352;2024-02-16T07:12:35;100197.34;;;10.81;100.00
85055;BME280;75391;48.300;16.352;2024-02-16T07:15:01;100189.06;;;10.66;100.00
85055;BME280;75391;48.300;16.352;2024-02-16T07:17:26;100184.75;;;10.42;100.00
85055;BME280;75391;48.300;16.352;2024-02-16T07:19:52;100186.75;;;10.59;100.00
85055;BME280;75391;48.300;16.352;2024-02-16T07:22:18;100185.53;;;10.67;100.00
85055;BME280;75391;48.300;16.352;2024-02-16T07:24:43;100188.72;;;10.98;100.00
85055;BME280;75391;48.300;16.352;2024-02-16T07:27:10;100190.44;;;10.99;100.00
85055;BME280;75391;48.300;16.352;2024-02-16T07:29:54;100196.41;;;11.04;100.00
85055;BME280;75391;48.300;16.352;2024-02-16T07:32:38;100199.84;;;11.06;100.00
85055;BME280;75391;48.300;16.352;2024-02-16T07:35:04;100193.69;;;11.05;100.00
85055;BME280;75391;48.300;16.352;2024-02-16T07:37:30;100195.53;;;10.81;100.00
85055;BME280;75391;48.300;16.352;2024-02-16T07:39:55;100202.44;;;10.85;100.00
85055;BME280;75391;48.300;16.352;2024-02-16T07:42:39;100194.81;;;11.20;100.00
85055;BME280;75391;48.300;16.352;2024-02-16T07:45:23;100194.69;;;11.23;100.00
85055;BME280;75391;48.300;16.352;2024-02-16T08:01:35;100197.16;;;11.28;100.00
85055;BME280;75391;48.300;16.352;2024-02-16T08:04:01;100187.72;;;11.63;100.00
85055;BME280;75391;48.300;16.352;2024-02-16T08:06:27;100197.44;;;11.62;100.00
85055;BME280;75391;48.300;16.352;2024-02-16T08:08:53;100196.44;;;11.65;100.00
85055;BME280;75391;48.300;16.352;2024-02-16T08:11:19;100185.56;;;11.71;100.00
85055;BME280;75391;48.300;16.352;2024-02-16T08:13:44;100183.31;;;11.62;100.00
85055;BME280;75391;48.300;16.352;2024-02-16T08:16:10;100181.47;;;11.64;100.00
85055;BME280;75391;48.300;16.352;2024-02-16T08:18:36;100180.69;;;11.82;100.00
85055;BME280;75391;48.300;16.352;2024-02-16T08:21:01;100180.31;;;12.10;100.00
85055;BME280;75391;48.300;16.352;2024-02-16T08:23:27;100177.28;;;11.78;100.00
85055;BME280;75391;48.300;16.352;2024-02-16T08:25:53;100186.94;;;11.81;100.00
85055;BME280;75391;48.300;16.352;2024-02-16T08:28:18;100181.88;;;12.14;100.00
85055;BME280;75391;48.300;16.352;2024-02-16T08:30:44;100179.47;;;12.28;100.00
85055;BME280;75391;48.300;16.352;2024-02-16T08:33:10;100180.16;;;11.74;100.00
85055;BME280;75391;48.300;16.352;2024-02-16T08:35:36;100184.38;;;11.98;100.00
85055;BME280;75391;48.300;16.352;2024-02-16T08:38:01;100184.88;;;11.88;100.00
85055;BME280;75391;48.300;16.352;2024-02-16T08:40:27;100176.25;;;12.22;100.00
85055;BME280;75391;48.300;16.352;2024-02-16T08:42:53;100181.00;;;11.74;100.00
85055;BME280;75391;48.300;16.352;2024-02-16T08:45:18;100177.06;;;12.03;100.00
85055;BME280;75391;48.300;16.352;2024-02-16T08:47:44;100181.88;;;11.34;100.00
85055;BME280;75391;48.300;16.352;2024-02-16T08:50:10;100180.00;;;11.97;100.00
85055;BME280;75391;48.300;16.352;2024-02-16T08:52:35;100184.25;;;12.20;100.00
85055;BME280;75391;48.300;16.352;2024-02-16T08:55:01;100189.41;;;12.61;100.00
85055;BME280;75391;48.300;16.352;2024-02-16T08:57:27;100184.53;;;12.52;100.00
85055;BME280;75391;48.300;16.352;2024-02-16T08:59:52;100187.88;;;11.78;100.00
85055;BME280;75391;48.300;16.352;2024-02-16T09:02:18;100180.22;;;12.49;100.00
85055;BME280;75391;48.300;16.352;2024-02-16T09:04:45;100178.75;;;12.99;100.00
85055;BME280;75391;48.300;16.352;2024-02-16T09:07:11;100178.56;;;13.02;100.00
85055;BME280;75391;48.300;16.352;2024-02-16T09:09:36;100169.59;;;12.87;100.00
85055;BME280;75391;48.300;16.352;2024-02-16T09:12:02;100179.34;;;13.04;100.00
85055;BME280;75391;48.300;16.352;2024-02-16T09:14:28;100189.47;;;12.60;100.00
85055;BME280;75391;48.300;16.352;2024-02-16T09:16:53;100183.59;;;12.72;100.00
85055;BME280;75391;48.300;16.352;2024-02-16T09:19:19;100179.22;;;12.71;100.00
85055;BME280;75391;48.300;16.352;2024-02-16T09:21:45;100187.94;;;12.73;100.00
85055;BME280;75391;48.300;16.352;2024-02-16T09:24:11;100178.25;;;12.36;100.00
85055;BME280;75391;48.300;16.352;2024-02-16T09:26:37;100181.34;;;12.63;100.00
85055;BME280;75391;48.300;16.352;2024-02-16T09:29:02;100174.94;;;13.22;100.00
85055;BME280;75391;48.300;16.352;2024-02-16T09:31:28;100185.38;;;12.71;100.00
85055;BME280;75391;48.300;16.352;2024-02-16T09:33:54;100193.41;;;12.70;100.00
85055;BME280;75391;48.300;16.352;2024-02-16T09:36:20;100190.66;;;12.90;100.00
85055;BME280;75391;48.300;16.352;2024-02-16T09:38:45;100185.41;;;13.42;100.00
85055;BME280;75391;48.300;16.352;2024-02-16T09:41:13;100183.41;;;13.80;100.00
85055;BME280;75391;48.300;16.352;2024-02-16T09:43:38;100176.03;;;13.70;100.00
85055;BME280;75391;48.300;16.352;2024-02-16T09:46:04;100184.31;;;13.97;100.00
85055;BME280;75391;48.300;16.352;2024-02-16T09:48:29;100176.25;;;13.82;100.00
85055;BME280;75391;48.300;16.352;2024-02-16T09:50:56;100180.41;;;14.04;100.00
85055;BME280;75391;48.300;16.352;2024-02-16T09:53:25;100178.06;;;13.65;100.00
85055;BME280;75391;48.300;16.352;2024-02-16T09:55:50;100180.84;;;14.12;100.00
85055;BME280;75391;48.300;16.352;2024-02-16T09:58:19;100171.50;;;14.21;100.00
85055;BME280;75391;48.300;16.352;2024-02-16T10:00:49;100174.78;;;14.26;100.00
85055;BME280;75391;48.300;16.352;2024-02-16T10:03:29;100172.78;;;14.13;100.00
85055;BME280;75391;48.300;16.352;2024-02-16T10:08:30;100174.91;;;14.56;100.00
85055;BME280;75391;48.300;16.352;2024-02-16T10:11:03;100178.59;;;14.04;100.00
85055;BME280;75391;48.300;16.352;2024-02-16T10:13:30;100172.34;;;14.05;100.00
85055;BME280;75391;48.300;16.352;2024-02-16T10:16:07;100179.53;;;13.87;100.00
85055;BME280;75391;48.300;16.352;2024-02-16T10:18:33;100181.09;;;14.07;100.00
85055;BME280;75391;48.300;16.352;2024-02-16T10:20:58;100174.09;;;14.38;100.00
85055;BME280;75391;48.300;16.352;2024-02-16T10:23:24;100175.72;;;14.25;100.00
85055;BME280;75391;48.300;16.352;2024-02-16T10:25:50;100173.00;;;14.74;97.39
85055;BME280;75391;48.300;16.352;2024-02-16T10:28:15;100167.34;;;14.64;96.53
85055;BME280;75391;48.300;16.352;2024-02-16T10:30:42;100172.84;;;14.77;99.74
85055;BME280;75391;48.300;16.352;2024-02-16T10:33:08;100173.94;;;14.25;100.00
85055;BME280;75391;48.300;16.352;2024-02-16T10:35:37;100172.56;;;14.81;100.00
85055;BME280;75391;48.300;16.352;2024-02-16T10:38:07;100171.56;;;14.52;99.90
85055;BME280;75391;48.300;16.352;2024-02-16T10:40:33;100164.31;;;14.86;96.61
85055;BME280;75391;48.300;16.352;2024-02-16T10:43:04;100165.66;;;15.09;93.59
85055;BME280;75391;48.300;16.352;2024-02-16T10:45:33;100161.56;;;15.78;92.68
85055;BME280;75391;48.300;16.352;2024-02-16T10:47:59;100162.16;;;15.08;90.35
85055;BME280;75391;48.300;16.352;2024-02-16T10:50:25;100154.34;;;15.49;90.30
85055;BME280;75391;48.300;16.352;2024-02-16T10:52:52;100163.41;;;15.61;89.03
85055;BME280;75391;48.300;16.352;2024-02-16T10:55:19;100151.88;;;15.91;84.57
85055;BME280;75391;48.300;16.352;2024-02-16T10:57:45;100139.75;;;16.14;84.16
85055;BME280;75391;48.300;16.352;2024-02-16T11:00:11;100143.75;;;16.21;81.95
85055;BME280;75391;48.300;16.352;2024-02-16T11:02:53;100147.13;;;16.51;79.65
85055;BME280;75391;48.300;16.352;2024-02-16T11:05:19;100145.41;;;16.36;77.33
85055;BME280;75391;48.300;16.352;2024-02-16T11:07:45;100148.88;;;16.38;77.92
85055;BME280;75391;48.300;16.352;2024-02-16T11:10:13;100144.38;;;16.39;77.76
85055;BME280;75391;48.300;16.352;2024-02-16T11:12:43;100146.38;;;16.49;74.69
85055;BME280;75391;48.300;16.352;2024-02-16T11:15:10;100161.25;;;16.39;73.39
85055;BME280;75391;48.300;16.352;2024-02-16T11:17:35;100155.84;;;15.98;73.06
85055;BME280;75391;48.300;16.352;2024-02-16T11:20:01;100155.97;;;16.66;75.64
85055;BME280;75391;48.300;16.352;2024-02-16T11:22:27;100151.88;;;16.61;75.96
85055;BME280;75391;48.300;16.352;2024-02-16T11:24:53;100151.28;;;16.00;77.41
85055;BME280;75391;48.300;16.352;2024-02-16T11:27:19;100152.53;;;16.09;78.73
85055;BME280;75391;48.300;16.352;2024-02-16T11:29:46;100140.47;;;16.30;76.76
85055;BME280;75391;48.300;16.352;2024-02-16T11:32:12;100149.84;;;16.64;77.36
85055;BME280;75391;48.300;16.352;2024-02-16T11:34:37;100153.19;;;16.53;74.11
85055;BME280;75391;48.300;16.352;2024-02-16T11:37:04;100146.00;;;16.82;75.42
85055;BME280;75391;48.300;16.352;2024-02-16T11:39:30;100149.97;;;16.07;75.83
85055;BME280;75391;48.300;16.352;2024-02-16T11:42:06;100133.81;;;16.78;77.88
85055;BME280;75391;48.300;16.352;2024-02-16T11:44:33;100122.19;;;16.38;77.11
85055;BME280;75391;48.300;16.352;2024-02-16T11:47:00;100133.38;;;16.58;74.63
85055;BME280;75391;48.300;16.352;2024-02-16T11:49:31;100139.50;;;16.45;73.66
85055;BME280;75391;48.300;16.352;2024-02-16T11:51:59;100126.66;;;16.65;73.45
85055;BME280;75391;48.300;16.352;2024-02-16T11:54:24;100126.84;;;16.35;73.38
85055;BME280;75391;48.300;16.352;2024-02-16T11:56:51;100130.38;;;16.76;71.85
85055;BME280;75391;48.300;16.352;2024-02-16T11:59:21;100133.91;;;16.77;74.62
85055;BME280;75391;48.300;16.352;2024-02-16T12:01:56;100132.22;;;16.89;72.57
85055;BME280;75391;48.300;16.352;2024-02-16T12:04:27;100122.66;;;16.99;73.16
85055;BME280;75391;48.300;16.352;2024-02-16T12:06:59;100125.31;;;16.99;71.56
85055;BME280;75391;48.300;16.352;2024-02-16T12:09:25;100120.31;;;17.07;71.93
85055;BME280;75391;48.300;16.352;2024-02-16T12:11:53;100118.16;;;17.52;70.84
85055;BME280;75391;48.300;16.352;2024-02-16T12:14:21;100122.94;;;17.21;69.71
85055;BME280;75391;48.300;16.352;2024-02-16T12:16:51;100123.25;;;17.29;69.16
85055;BME280;75391;48.300;16.352;2024-02-16T12:19:18;100124.63;;;17.22;69.28
85055;BME280;75391;48.300;16.352;2024-02-16T12:21:44;100122.50;;;17.15;68.02
85055;BME280;75391;48.300;16.352;2024-02-16T12:24:10;100117.59;;;17.34;67.82
85055;BME280;75391;48.300;16.352;2024-02-16T12:26:35;100110.97;;;17.27;68.81
85055;BME280;75391;48.300;16.352;2024-02-16T12:29:01;100114.19;;;17.32;69.47
85055;BME280;75391;48.300;16.352;2024-02-16T12:31:27;100109.63;;;17.07;69.01
85055;BME280;75391;48.300;16.352;2024-02-16T12:33:52;100112.25;;;17.47;67.91
85055;BME280;75391;48.300;16.352;2024-02-16T12:36:18;100108.38;;;17.25;67.03
85055;BME280;75391;48.300;16.352;2024-02-16T12:38:44;100095.53;;;17.18;66.41
85055;BME280;75391;48.300;16.352;2024-02-16T12:41:10;100101.25;;;17.64;67.58
85055;BME280;75391;48.300;16.352;2024-02-16T12:43:35;100099.72;;;17.09;68.59
85055;BME280;75391;48.300;16.352;2024-02-16T12:46:01;100103.88;;;17.13;69.40
85055;BME280;75391;48.300;16.352;2024-02-16T12:48:27;100101.38;;;17.88;69.32
85055;BME280;75391;48.300;16.352;2024-02-16T12:50:53;100107.16;;;17.82;66.99